createdAt,value
2017-06-21T00:00:58.893Z,0
2017-06-21T00:10:58.905Z,0
2017-06-21T00:20:58.974Z,0
2017-06-21T00:30:58.980Z,0
2017-06-21T00:40:59.040Z,0
2017-06-21T00:50:59.865Z,0
2017-06-21T01:00:59.991Z,0
2017-06-21T01:10:59.793Z,0
2017-06-21T01:20:58.883Z,0
2017-06-21T01:30:58.828Z,0
2017-06-21T01:40:59.918Z,0
2017-06-21T01:50:58.855Z,0
2017-06-21T02:01:02.573Z,0
2017-06-21T02:10:58.825Z,4
2017-06-21T02:20:59.057Z,4
2017-06-21T02:30:59.957Z,8
2017-06-21T02:41:00.788Z,20
2017-06-21T02:50:58.817Z,64
2017-06-21T03:00:58.844Z,148
2017-06-21T03:10:58.838Z,316
2017-06-21T03:20:58.766Z,636
2017-06-21T03:30:58.918Z,1048
2017-06-21T03:40:58.815Z,1612
2017-06-21T03:50:58.774Z,2252
2017-06-21T04:00:58.832Z,3148
2017-06-21T04:10:58.806Z,3768
2017-06-21T04:20:58.769Z,4584
2017-06-21T04:30:58.839Z,5332
2017-06-21T04:40:58.772Z,6104
2017-06-21T04:50:58.889Z,6820
2017-06-21T05:00:58.807Z,18656
2017-06-21T05:10:58.771Z,14428
2017-06-21T05:20:58.857Z,21568
2017-06-21T05:30:58.780Z,9776
2017-06-21T05:40:58.873Z,13296
2017-06-21T05:50:58.828Z,33408
2017-06-21T06:00:58.928Z,33568
2017-06-21T06:10:58.857Z,34592
2017-06-21T06:20:58.950Z,48800
2017-06-21T06:30:59.159Z,46048
2017-06-21T06:40:59.049Z,54976
2017-06-21T06:50:58.956Z,62688
2017-06-21T07:00:58.914Z,57920
2017-06-21T07:10:58.868Z,62624
2017-06-21T07:21:03.862Z,62496
2017-06-21T07:30:58.829Z,61664
2017-06-21T07:40:58.876Z,66592
2017-06-21T07:50:58.838Z,70560
2017-06-21T08:00:58.911Z,69248
2017-06-21T08:10:58.873Z,79840
2017-06-21T08:20:58.912Z,91520
2017-06-21T08:30:58.889Z,88256
2017-06-21T08:40:58.863Z,89184
2017-06-21T08:50:59.028Z,75744
2017-06-21T09:00:58.874Z,86240
2017-06-21T09:10:59.001Z,10072
2017-06-21T09:20:58.915Z,11124
2017-06-21T09:30:58.889Z,11536
2017-06-21T09:40:58.937Z,11572
2017-06-21T09:50:58.906Z,12420
2017-06-21T10:00:58.920Z,10524
2017-06-21T10:10:58.914Z,10868
2017-06-21T10:20:59.085Z,8856
2017-06-21T10:30:58.861Z,8880
2017-06-21T10:40:58.842Z,13236
2017-06-21T10:50:58.860Z,15132
2017-06-21T11:00:58.962Z,13928
2017-06-21T11:10:58.853Z,8364
2017-06-21T11:20:58.869Z,6948
2017-06-21T11:30:58.899Z,8648
2017-06-21T11:40:58.965Z,8876
2017-06-21T11:50:58.924Z,8512
2017-06-21T12:00:58.989Z,6372
2017-06-21T12:10:58.925Z,5744
2017-06-21T12:20:58.893Z,5308
2017-06-21T12:30:59.379Z,5220
2017-06-21T12:40:58.959Z,5200
2017-06-21T12:50:59.971Z,4964
2017-06-21T13:00:58.976Z,5084
2017-06-21T13:10:58.962Z,4824
2017-06-21T13:20:58.924Z,4520
2017-06-21T13:30:58.994Z,4328
2017-06-21T13:40:58.978Z,4328
2017-06-21T13:50:59.352Z,4412
2017-06-21T14:00:59.007Z,4496
2017-06-21T14:10:59.104Z,4340
2017-06-21T14:20:59.010Z,4176
2017-06-21T14:30:59.001Z,4100
2017-06-21T14:40:58.969Z,3992
2017-06-21T14:50:59.081Z,3972
2017-06-21T15:00:58.966Z,3744
2017-06-21T15:10:58.943Z,3884
2017-06-21T15:20:58.973Z,4168
2017-06-21T15:30:58.939Z,4252
2017-06-21T15:40:58.940Z,4652
2017-06-21T15:50:59.131Z,4436
2017-06-21T16:00:58.949Z,4104
2017-06-21T16:10:58.968Z,4252
2017-06-21T16:20:58.949Z,4336
2017-06-21T16:30:58.940Z,4396
2017-06-21T16:40:58.953Z,4100
2017-06-21T16:50:59.007Z,3560
2017-06-21T17:00:58.991Z,3376
2017-06-21T17:10:59.016Z,3452
2017-06-21T17:20:58.959Z,3216
2017-06-21T17:30:58.990Z,3304
2017-06-21T17:40:58.998Z,3296
2017-06-21T17:50:59.001Z,2940
2017-06-21T18:00:59.403Z,2632
2017-06-21T18:10:59.639Z,2712
2017-06-21T18:20:58.965Z,2316
2017-06-21T18:30:59.029Z,2656
2017-06-21T18:40:58.982Z,2340
2017-06-21T18:50:58.975Z,1704
2017-06-21T19:00:58.985Z,1144
2017-06-21T19:10:59.711Z,772
2017-06-21T19:20:59.067Z,636
2017-06-21T19:30:58.994Z,548
2017-06-21T19:40:59.115Z,360
2017-06-21T19:50:59.046Z,196
2017-06-21T20:00:59.400Z,84
2017-06-21T20:10:59.125Z,36
2017-06-21T20:20:59.035Z,12
2017-06-21T20:30:59.035Z,8
2017-06-21T20:40:59.132Z,4
2017-06-21T20:50:59.118Z,0
2017-06-21T21:00:59.035Z,0
2017-06-21T21:10:59.042Z,0
2017-06-21T21:20:59.080Z,0
2017-06-21T21:30:59.067Z,0
2017-06-21T21:40:59.103Z,0
2017-06-21T21:50:59.090Z,0
2017-06-21T22:00:59.012Z,0
2017-06-21T22:10:59.064Z,4
2017-06-21T22:20:59.051Z,0
2017-06-21T22:30:59.092Z,0
2017-06-21T22:40:59.137Z,4
2017-06-21T22:50:59.017Z,0
2017-06-21T23:00:59.077Z,0
2017-06-21T23:10:59.102Z,0
2017-06-21T23:20:58.996Z,0
2017-06-21T23:30:59.050Z,0
2017-06-21T23:40:59.115Z,0
2017-06-21T23:50:59.076Z,0
